createdAt,value
2022-12-25T00:02:03.022Z,8.20
2022-12-25T00:04:30.911Z,6.80
2022-12-25T00:06:59.713Z,8.80
2022-12-25T00:09:27.680Z,7.60
2022-12-25T00:11:56.204Z,6.70
2022-12-25T00:14:24.074Z,8.90
2022-12-25T00:16:51.939Z,6.90
2022-12-25T00:19:19.732Z,6.50
2022-12-25T00:21:47.614Z,7.70
2022-12-25T00:24:15.538Z,7.10
2022-12-25T00:26:43.383Z,7.50
2022-12-25T00:29:12.935Z,7.40
2022-12-25T00:31:40.981Z,6.80
2022-12-25T00:34:08.883Z,6.90
2022-12-25T00:36:41.667Z,7.20
2022-12-25T00:39:10.504Z,6.80
2022-12-25T00:41:57.195Z,7.30
2022-12-25T00:44:25.042Z,7.30
2022-12-25T00:46:53.123Z,6.80
2022-12-25T00:49:23.767Z,7.30
2022-12-25T00:51:51.893Z,7.10
2022-12-25T00:54:20.789Z,7.20
2022-12-25T00:56:48.999Z,7.40
2022-12-25T00:59:17.031Z,7.40
2022-12-25T01:01:45.054Z,7.80
2022-12-25T01:04:13.189Z,7.10
2022-12-25T01:06:41.004Z,7.40
2022-12-25T01:09:28.172Z,7.00
2022-12-25T01:11:56.070Z,7.30
2022-12-25T01:14:23.891Z,7.00
2022-12-25T01:16:51.932Z,7.10
2022-12-25T01:19:19.915Z,7.50
2022-12-25T01:21:47.840Z,7.30
2022-12-25T01:24:15.679Z,8.50
2022-12-25T01:26:43.601Z,11.30
2022-12-25T01:29:11.434Z,10.20
2022-12-25T01:31:39.304Z,7.90
2022-12-25T01:34:07.394Z,10.30
2022-12-25T01:36:35.296Z,10.20
2022-12-25T01:39:04.190Z,10.80
2022-12-25T01:41:31.984Z,7.90
2022-12-25T01:44:07.715Z,7.30
2022-12-25T01:46:36.111Z,7.80
2022-12-25T01:49:10.064Z,11.10
2022-12-25T01:54:33.503Z,11.00
2022-12-25T01:57:04.878Z,12.90
2022-12-25T01:59:33.073Z,8.00
2022-12-25T02:02:01.382Z,9.20
2022-12-25T02:04:41.353Z,7.30
2022-12-25T02:07:14.896Z,8.20
2022-12-25T02:09:44.469Z,11.00
2022-12-25T02:12:22.241Z,16.70
2022-12-25T02:14:55.381Z,16.20
2022-12-25T02:17:31.263Z,17.20
2022-12-25T02:23:15.046Z,12.40
2022-12-25T02:26:04.480Z,13.80
2022-12-25T02:28:57.889Z,10.60
2022-12-25T02:31:53.998Z,9.10
2022-12-25T02:34:36.991Z,11.40
2022-12-25T02:37:12.935Z,9.90
2022-12-25T02:40:02.299Z,9.90
2022-12-25T02:43:19.177Z,8.50
2022-12-25T02:46:11.542Z,8.40
2022-12-25T02:49:04.768Z,9.10
2022-12-25T02:51:55.565Z,28.90
2022-12-25T02:54:50.127Z,25.50
2022-12-25T03:00:27.975Z,8.10
2022-12-25T03:03:19.342Z,9.90
2022-12-25T03:06:06.563Z,6.70
2022-12-25T03:08:40.186Z,10.00
2022-12-25T03:11:30.239Z,8.40
2022-12-25T03:14:23.836Z,6.50
2022-12-25T03:16:55.928Z,6.90
2022-12-25T03:19:47.841Z,7.70
2022-12-25T03:22:42.760Z,8.90
2022-12-25T03:25:29.530Z,7.60
2022-12-25T03:27:59.835Z,7.10
2022-12-25T03:30:56.119Z,8.00
2022-12-25T03:34:06.716Z,6.40
2022-12-25T03:37:15.851Z,6.10
2022-12-25T03:39:55.760Z,7.00
2022-12-25T03:42:44.405Z,7.90
2022-12-25T03:45:46.691Z,6.20
2022-12-25T03:48:35.929Z,6.70
2022-12-25T03:51:28.936Z,8.50
2022-12-25T03:54:21.048Z,5.10
2022-12-25T03:57:08.809Z,5.70
2022-12-25T03:59:55.153Z,5.00
2022-12-25T04:02:41.836Z,5.30
2022-12-25T04:05:28.222Z,4.90
2022-12-25T04:08:14.689Z,5.10
2022-12-25T04:11:01.204Z,4.50
2022-12-25T04:13:47.523Z,4.60
2022-12-25T04:16:34.086Z,4.90
2022-12-25T04:19:20.596Z,4.70
2022-12-25T04:22:07.145Z,4.90
2022-12-25T04:24:53.748Z,4.60
2022-12-25T04:27:40.296Z,4.60
2022-12-25T04:30:27.833Z,4.50
2022-12-25T04:33:17.782Z,8.00
2022-12-25T04:36:07.580Z,7.60
2022-12-25T04:38:36.352Z,8.10
2022-12-25T04:41:05.376Z,11.30
2022-12-25T04:43:33.216Z,9.00
2022-12-25T04:46:02.445Z,10.20
2022-12-25T04:48:33.844Z,5.60
2022-12-25T04:51:22.543Z,7.60
2022-12-25T04:53:51.446Z,4.60
2022-12-25T04:56:20.910Z,7.90
2022-12-25T04:58:49.405Z,11.30
2022-12-25T05:01:17.444Z,10.80
2022-12-25T05:03:45.697Z,18.70
2022-12-25T05:06:13.676Z,12.50
2022-12-25T05:08:41.562Z,17.10
2022-12-25T05:11:12.659Z,14.70
2022-12-25T05:13:41.402Z,12.10
2022-12-25T05:16:13.912Z,17.80
2022-12-25T05:18:42.271Z,19.80
2022-12-25T05:21:12.099Z,7.90
2022-12-25T05:23:48.516Z,11.00
2022-12-25T05:26:19.785Z,17.30
2022-12-25T05:28:48.135Z,17.00
2022-12-25T05:31:16.656Z,22.60
2022-12-25T05:33:44.512Z,18.80
2022-12-25T05:36:13.032Z,15.30
2022-12-25T05:38:40.855Z,19.40
2022-12-25T05:41:08.708Z,12.30
2022-12-25T05:43:36.747Z,20.40
2022-12-25T05:46:10.414Z,13.60
2022-12-25T05:48:38.950Z,13.50
2022-12-25T05:51:10.723Z,22.90
2022-12-25T05:53:38.972Z,18.80
2022-12-25T05:56:08.025Z,6.60
2022-12-25T05:58:40.498Z,9.70
2022-12-25T06:01:23.184Z,17.30
2022-12-25T06:03:51.694Z,13.40
2022-12-25T06:06:19.648Z,13.40
2022-12-25T06:08:47.511Z,10.90
2022-12-25T06:11:15.868Z,11.00
2022-12-25T06:13:43.713Z,13.20
2022-12-25T06:16:12.587Z,10.40
2022-12-25T06:18:44.168Z,10.70
2022-12-25T06:21:14.129Z,15.60
2022-12-25T06:23:42.816Z,12.00
2022-12-25T06:26:13.450Z,8.30
2022-12-25T06:28:41.392Z,9.70
2022-12-25T06:31:17.846Z,7.80
2022-12-25T06:33:46.714Z,9.50
2022-12-25T06:36:17.832Z,7.80
2022-12-25T06:38:46.574Z,10.90
2022-12-25T06:41:17.535Z,11.90
2022-12-25T06:43:55.643Z,11.30
2022-12-25T06:46:25.911Z,8.60
2022-12-25T06:48:55.786Z,6.30
2022-12-25T06:51:26.115Z,7.00
2022-12-25T06:53:59.854Z,5.60
2022-12-25T06:56:28.327Z,5.30
2022-12-25T06:59:03.276Z,5.10
2022-12-25T07:01:35.730Z,5.60
2022-12-25T07:04:11.607Z,5.50
2022-12-25T07:06:39.835Z,6.70
2022-12-25T07:09:07.645Z,5.70
2022-12-25T07:11:36.340Z,5.80
2022-12-25T07:14:04.286Z,6.20
2022-12-25T07:16:32.531Z,7.30
2022-12-25T07:19:01.616Z,6.10
2022-12-25T07:21:29.515Z,6.60
2022-12-25T07:23:57.426Z,6.30
2022-12-25T07:26:25.269Z,6.30
2022-12-25T07:28:54.985Z,6.40
2022-12-25T07:31:22.832Z,6.00
2022-12-25T07:33:56.943Z,5.90
2022-12-25T07:36:24.774Z,7.10
2022-12-25T07:38:52.640Z,6.30
2022-12-25T07:41:20.482Z,6.70
2022-12-25T07:43:53.011Z,6.80
2022-12-25T07:46:23.294Z,5.60
2022-12-25T07:48:51.830Z,5.60
2022-12-25T07:51:19.760Z,5.90
2022-12-25T07:53:47.632Z,5.50
2022-12-25T07:56:19.152Z,6.10
2022-12-25T07:58:48.747Z,6.30
2022-12-25T08:01:21.912Z,5.40
2022-12-25T08:03:52.265Z,5.90
2022-12-25T08:06:21.848Z,5.90
2022-12-25T08:08:49.779Z,6.30
2022-12-25T08:11:17.751Z,5.60
2022-12-25T08:13:45.715Z,6.30
2022-12-25T08:16:13.925Z,6.50
2022-12-25T08:18:43.142Z,7.30
2022-12-25T08:21:14.721Z,5.70
2022-12-25T08:23:44.798Z,5.90
2022-12-25T08:26:15.738Z,6.10
2022-12-25T08:28:43.628Z,5.90
2022-12-25T08:31:17.145Z,5.80
2022-12-25T08:33:45.535Z,5.70
2022-12-25T08:36:14.016Z,5.30
2022-12-25T08:38:42.595Z,5.40
2022-12-25T08:41:11.302Z,5.50
2022-12-25T08:43:39.453Z,5.90
2022-12-25T08:46:08.836Z,5.20
2022-12-25T08:48:37.625Z,5.90
2022-12-25T08:51:11.843Z,5.90
2022-12-25T08:53:39.753Z,5.80
2022-12-25T08:56:07.933Z,6.10
2022-12-25T08:58:36.244Z,5.80
2022-12-25T09:01:05.450Z,5.90
2022-12-25T09:03:34.315Z,5.50
2022-12-25T09:06:04.980Z,5.20
2022-12-25T09:08:33.311Z,5.40
2022-12-25T09:11:06.106Z,5.30
2022-12-25T09:13:34.859Z,5.30
2022-12-25T09:16:07.587Z,5.00
2022-12-25T09:18:36.050Z,5.10
2022-12-25T09:21:06.805Z,4.80
2022-12-25T09:23:34.956Z,5.30
2022-12-25T09:26:05.550Z,4.20
2022-12-25T09:28:33.854Z,4.60
2022-12-25T09:31:03.017Z,4.50
2022-12-25T09:33:31.189Z,4.50
2022-12-25T09:36:01.976Z,3.80
2022-12-25T09:38:30.482Z,4.30
2022-12-25T09:41:19.315Z,4.60
2022-12-25T09:43:55.115Z,4.30
2022-12-25T09:46:33.029Z,4.50
2022-12-25T09:49:16.319Z,4.40
2022-12-25T09:51:46.660Z,4.80
2022-12-25T09:54:22.404Z,5.10
2022-12-25T09:56:50.454Z,4.80
2022-12-25T09:59:26.024Z,4.30
2022-12-25T10:02:10.349Z,4.30
2022-12-25T10:05:06.542Z,4.40
2022-12-25T10:07:47.955Z,4.80
2022-12-25T10:10:27.806Z,4.30
2022-12-25T10:13:10.824Z,4.30
2022-12-25T10:15:54.780Z,4.80
2022-12-25T10:18:47.493Z,4.40
2022-12-25T10:21:18.748Z,4.90
2022-12-25T10:23:52.907Z,4.30
2022-12-25T10:26:22.812Z,6.10
2022-12-25T10:29:10.838Z,5.10
2022-12-25T10:31:38.818Z,5.00
2022-12-25T10:34:09.460Z,5.10
2022-12-25T10:36:37.668Z,4.20
2022-12-25T10:39:05.528Z,5.70
2022-12-25T10:42:20.050Z,4.10
2022-12-25T10:44:59.311Z,4.00
2022-12-25T10:47:34.086Z,4.80
2022-12-25T10:50:11.667Z,4.70
2022-12-25T10:52:54.635Z,4.00
2022-12-25T10:55:28.413Z,3.50
2022-12-25T10:57:58.779Z,4.20
2022-12-25T11:00:30.082Z,3.30
2022-12-25T11:02:58.773Z,2.80
2022-12-25T11:05:35.209Z,3.00
2022-12-25T11:08:04.142Z,3.20
2022-12-25T11:10:36.700Z,3.10
2022-12-25T11:13:17.552Z,3.10
2022-12-25T11:15:48.752Z,3.40
2022-12-25T11:18:21.592Z,3.50
2022-12-25T11:21:01.201Z,3.00
2022-12-25T11:23:31.720Z,2.70
2022-12-25T11:26:08.033Z,2.60
2022-12-25T11:28:38.979Z,2.30
2022-12-25T11:31:21.713Z,2.30
2022-12-25T11:34:05.737Z,2.80
2022-12-25T11:36:50.006Z,2.70
2022-12-25T11:39:23.967Z,2.60
2022-12-25T11:41:57.183Z,2.60
2022-12-25T11:44:37.056Z,1.90
2022-12-25T11:47:19.889Z,1.80
2022-12-25T11:50:03.530Z,2.10
2022-12-25T11:52:38.472Z,2.20
2022-12-25T11:55:21.684Z,2.40
2022-12-25T11:57:57.241Z,2.20
2022-12-25T12:00:25.681Z,2.20
2022-12-25T12:03:03.999Z,2.10
2022-12-25T12:05:42.899Z,2.00
2022-12-25T12:08:11.597Z,2.40
2022-12-25T12:11:00.855Z,2.30
2022-12-25T12:13:45.861Z,2.30
2022-12-25T12:16:13.959Z,2.20
2022-12-25T12:18:48.087Z,2.30
2022-12-25T12:21:18.125Z,2.30
2022-12-25T12:24:01.142Z,1.70
2022-12-25T12:26:32.048Z,1.90
2022-12-25T12:29:02.533Z,2.30
2022-12-25T12:31:40.893Z,2.50
2022-12-25T12:34:26.239Z,2.20
2022-12-25T12:37:24.841Z,2.60
2022-12-25T12:39:54.971Z,4.40
2022-12-25T12:42:40.651Z,6.50
2022-12-25T12:45:20.550Z,7.00
2022-12-25T12:47:50.647Z,6.40
2022-12-25T12:50:33.839Z,5.80
2022-12-25T12:53:23.771Z,5.10
2022-12-25T12:55:52.994Z,6.20
2022-12-25T12:58:45.664Z,5.70
2022-12-25T13:01:35.196Z,5.60
2022-12-25T13:04:21.564Z,5.60
2022-12-25T13:06:54.891Z,5.50
2022-12-25T13:09:28.952Z,6.10
2022-12-25T13:11:56.959Z,5.30
2022-12-25T13:14:25.597Z,5.80
2022-12-25T13:16:54.895Z,5.80
2022-12-25T13:19:26.482Z,6.50
2022-12-25T13:21:58.125Z,6.60
2022-12-25T13:24:31.616Z,6.30
2022-12-25T13:27:00.586Z,6.30
2022-12-25T13:29:36.227Z,6.70
2022-12-25T13:32:08.004Z,7.00
2022-12-25T13:34:38.767Z,7.50
2022-12-25T13:37:15.435Z,7.20
2022-12-25T13:39:57.956Z,6.70
2022-12-25T13:42:32.415Z,6.30
2022-12-25T13:45:08.257Z,6.60
2022-12-25T13:47:38.888Z,7.30
2022-12-25T13:50:30.583Z,7.00
2022-12-25T13:53:15.848Z,7.50
2022-12-25T13:55:50.125Z,6.60
2022-12-25T13:58:24.772Z,6.50
2022-12-25T14:00:55.710Z,8.50
2022-12-25T14:03:30.837Z,7.80
2022-12-25T14:06:22.123Z,6.60
2022-12-25T14:08:51.441Z,7.70
2022-12-25T14:11:22.784Z,7.70
2022-12-25T14:13:56.738Z,8.20
2022-12-25T14:18:57.095Z,8.80
2022-12-25T14:21:41.071Z,8.90
2022-12-25T14:24:16.550Z,9.70
2022-12-25T14:26:44.738Z,9.00
2022-12-25T14:29:19.099Z,9.60
2022-12-25T14:31:48.929Z,9.20
2022-12-25T14:34:26.241Z,10.10
2022-12-25T14:36:54.586Z,8.90
2022-12-25T14:39:31.737Z,9.10
2022-12-25T14:42:02.030Z,9.00
2022-12-25T14:44:34.785Z,9.00
2022-12-25T14:47:18.253Z,9.20
2022-12-25T14:49:47.347Z,8.40
2022-12-25T14:52:23.186Z,8.30
2022-12-25T14:55:00.036Z,7.80
2022-12-25T14:57:50.517Z,8.40
2022-12-25T15:00:26.147Z,8.20
2022-12-25T15:02:57.015Z,8.60
2022-12-25T15:05:39.242Z,9.40
2022-12-25T15:08:13.035Z,9.50
2022-12-25T15:13:31.415Z,8.30
2022-12-25T15:16:11.836Z,8.70
2022-12-25T15:18:46.675Z,7.70
2022-12-25T15:21:25.195Z,8.80
2022-12-25T15:23:54.947Z,8.50
2022-12-25T15:26:23.798Z,7.90
2022-12-25T15:28:52.456Z,9.30
2022-12-25T15:31:29.914Z,9.30
2022-12-25T15:34:00.956Z,11.00
2022-12-25T15:36:29.139Z,9.90
2022-12-25T15:38:57.221Z,9.60
2022-12-25T15:41:48.925Z,8.90
2022-12-25T15:44:17.754Z,9.50
2022-12-25T15:46:46.266Z,9.80
2022-12-25T15:49:15.536Z,9.70
2022-12-25T15:51:44.969Z,9.10
2022-12-25T15:54:13.346Z,9.20
2022-12-25T15:56:41.184Z,10.00
2022-12-25T15:59:13.659Z,9.50
2022-12-25T16:02:01.235Z,9.60
2022-12-25T16:04:31.380Z,10.40
2022-12-25T16:06:59.901Z,14.20
2022-12-25T16:09:28.036Z,38.50
2022-12-25T16:11:55.847Z,26.30
2022-12-25T16:14:23.647Z,13.30
2022-12-25T16:16:51.547Z,16.50
2022-12-25T16:19:19.326Z,14.70
2022-12-25T16:21:47.372Z,14.30
2022-12-25T16:24:15.322Z,12.90
2022-12-25T16:26:43.872Z,15.20
2022-12-25T16:29:11.961Z,15.00
2022-12-25T16:31:40.370Z,13.40
2022-12-25T16:34:09.777Z,13.20
2022-12-25T16:36:39.061Z,12.30
2022-12-25T16:39:08.317Z,13.60
2022-12-25T16:41:36.202Z,12.70
2022-12-25T16:44:10.236Z,14.10
2022-12-25T16:46:40.396Z,13.80
2022-12-25T16:49:08.910Z,15.70
2022-12-25T16:51:36.804Z,15.80
2022-12-25T16:54:05.047Z,16.10
2022-12-25T16:56:33.013Z,14.50
2022-12-25T16:59:01.165Z,14.50
2022-12-25T17:01:29.724Z,14.50
2022-12-25T17:04:01.742Z,15.00
2022-12-25T17:06:29.997Z,13.90
2022-12-25T17:09:00.141Z,15.30
2022-12-25T17:11:32.140Z,15.40
2022-12-25T17:14:02.808Z,16.50
2022-12-25T17:16:36.257Z,15.20
2022-12-25T17:19:13.086Z,15.50
2022-12-25T17:21:41.329Z,15.00
2022-12-25T17:24:09.561Z,17.90
2022-12-25T17:26:38.005Z,15.70
2022-12-25T17:29:05.972Z,15.40
2022-12-25T17:31:35.250Z,15.20
2022-12-25T17:34:04.833Z,17.20
2022-12-25T17:36:32.905Z,18.50
2022-12-25T17:39:03.012Z,21.60
2022-12-25T17:41:31.669Z,21.20
2022-12-25T17:43:59.467Z,18.60
2022-12-25T17:46:29.990Z,17.80
2022-12-25T17:49:00.095Z,18.60
2022-12-25T17:51:30.385Z,17.10
2022-12-25T17:54:00.535Z,17.80
2022-12-25T17:56:29.276Z,22.20
2022-12-25T17:59:00.071Z,20.30
2022-12-25T18:01:30.347Z,17.20
2022-12-25T18:04:00.190Z,27.00
2022-12-25T18:06:29.599Z,20.90
2022-12-25T18:08:58.398Z,29.40
2022-12-25T18:11:32.661Z,26.10
2022-12-25T18:14:03.081Z,24.00
2022-12-25T18:16:33.573Z,20.90
2022-12-25T18:19:02.073Z,20.20
2022-12-25T18:21:30.339Z,19.80
2022-12-25T18:23:58.228Z,20.90
2022-12-25T18:26:29.063Z,19.10
2022-12-25T18:28:57.793Z,20.40
2022-12-25T18:31:27.644Z,19.30
2022-12-25T18:33:58.191Z,20.20
2022-12-25T18:36:27.780Z,20.40
2022-12-25T18:38:56.916Z,20.00
2022-12-25T18:41:28.522Z,19.70
2022-12-25T18:43:56.785Z,19.20
2022-12-25T18:46:26.315Z,21.20
2022-12-25T18:48:56.646Z,20.60
2022-12-25T18:51:26.752Z,21.20
2022-12-25T18:54:01.622Z,23.40
2022-12-25T18:56:30.910Z,22.70
2022-12-25T18:59:01.953Z,26.00
2022-12-25T19:01:31.014Z,26.10
2022-12-25T19:04:04.342Z,23.50
2022-12-25T19:06:33.824Z,23.80
2022-12-25T19:09:08.765Z,22.50
2022-12-25T19:11:46.475Z,22.10
2022-12-25T19:14:15.528Z,23.40
2022-12-25T19:16:44.208Z,19.70
2022-12-25T19:19:13.019Z,18.70
2022-12-25T19:21:41.884Z,18.80
2022-12-25T19:24:10.051Z,17.30
2022-12-25T19:26:38.087Z,18.50
2022-12-25T19:29:06.031Z,18.00
2022-12-25T19:31:33.925Z,17.70
2022-12-25T19:34:01.916Z,18.40
2022-12-25T19:36:29.921Z,18.20
2022-12-25T19:38:58.149Z,17.80
2022-12-25T19:41:26.707Z,17.20
2022-12-25T19:43:54.664Z,17.10
2022-12-25T19:46:26.156Z,20.30
2022-12-25T19:48:55.352Z,17.80
2022-12-25T19:51:28.704Z,21.00
2022-12-25T19:53:56.693Z,21.70
2022-12-25T19:56:26.809Z,22.50
2022-12-25T19:58:55.885Z,23.70
2022-12-25T20:01:26.908Z,25.60
2022-12-25T20:03:55.930Z,25.60
2022-12-25T20:06:34.672Z,25.40
2022-12-25T20:09:05.865Z,24.00
2022-12-25T20:11:35.538Z,23.00
2022-12-25T20:14:05.005Z,24.10
2022-12-25T20:16:33.320Z,25.20
2022-12-25T20:19:01.160Z,25.10
2022-12-25T20:21:30.109Z,24.40
2022-12-25T20:23:58.858Z,24.90
2022-12-25T20:26:29.999Z,23.50
2022-12-25T20:28:58.752Z,22.90
2022-12-25T20:31:29.184Z,24.20
2022-12-25T20:33:59.845Z,23.70
2022-12-25T20:36:34.433Z,24.70
2022-12-25T20:39:05.367Z,27.10
2022-12-25T20:41:33.151Z,24.50
2022-12-25T20:44:01.949Z,24.20
2022-12-25T20:46:30.216Z,25.10
2022-12-25T20:48:58.285Z,25.90
2022-12-25T20:51:27.037Z,25.50
2022-12-25T20:53:55.880Z,25.90
2022-12-25T20:56:25.738Z,25.60
2022-12-25T20:58:59.211Z,26.10
2022-12-25T21:01:29.398Z,26.20
2022-12-25T21:03:58.413Z,25.20
2022-12-25T21:06:26.662Z,26.20
2022-12-25T21:08:54.729Z,27.20
2022-12-25T21:11:22.764Z,25.20
2022-12-25T21:13:50.986Z,26.20
2022-12-25T21:16:22.348Z,20.40
2022-12-25T21:18:53.105Z,20.90
2022-12-25T21:21:22.388Z,22.80
2022-12-25T21:23:51.037Z,23.30
2022-12-25T21:26:25.266Z,21.40
2022-12-25T21:28:55.656Z,22.50
2022-12-25T21:31:24.519Z,23.70
2022-12-25T21:33:54.077Z,24.60
2022-12-25T21:36:23.942Z,24.90
2022-12-25T21:38:58.316Z,25.20
2022-12-25T21:41:28.249Z,25.20
2022-12-25T21:43:56.840Z,27.30
2022-12-25T21:46:25.906Z,27.30
2022-12-25T21:48:54.856Z,26.50
2022-12-25T21:51:50.436Z,26.60
2022-12-25T21:54:20.676Z,27.90
2022-12-25T21:56:49.381Z,27.60
2022-12-25T21:59:21.861Z,28.70
2022-12-25T22:01:51.316Z,28.70
2022-12-25T22:04:22.370Z,30.90
2022-12-25T22:07:09.544Z,27.00
2022-12-25T22:09:37.448Z,29.50
2022-12-25T22:12:28.527Z,29.20
2022-12-25T22:15:06.687Z,31.50
2022-12-25T22:17:59.710Z,29.70
2022-12-25T22:20:30.941Z,31.20
2022-12-25T22:22:58.875Z,33.10
2022-12-25T22:25:27.361Z,30.90
2022-12-25T22:27:55.497Z,34.40
2022-12-25T22:30:27.339Z,34.90
2022-12-25T22:32:56.089Z,32.90
2022-12-25T22:35:24.746Z,34.20
2022-12-25T22:37:54.047Z,33.60
2022-12-25T22:40:22.228Z,34.00
2022-12-25T22:42:53.694Z,34.60
2022-12-25T22:45:21.625Z,37.00
2022-12-25T22:47:49.529Z,38.40
2022-12-25T22:50:17.599Z,38.10
2022-12-25T22:52:46.620Z,37.00
2022-12-25T22:55:18.409Z,36.20
2022-12-25T22:57:46.514Z,34.80
2022-12-25T23:00:14.873Z,35.80
2022-12-25T23:02:43.021Z,34.50
2022-12-25T23:05:11.031Z,35.30
2022-12-25T23:07:39.049Z,35.30
2022-12-25T23:10:08.350Z,37.10
2022-12-25T23:12:54.780Z,37.90
2022-12-25T23:15:23.050Z,37.70
2022-12-25T23:18:09.608Z,36.40
2022-12-25T23:20:56.063Z,37.80
2022-12-25T23:23:42.691Z,37.00
2022-12-25T23:26:11.485Z,38.80
2022-12-25T23:29:01.759Z,37.80
2022-12-25T23:31:36.775Z,39.90
2022-12-25T23:34:05.716Z,40.30
2022-12-25T23:36:34.708Z,38.00
2022-12-25T23:39:09.576Z,39.30
2022-12-25T23:41:39.661Z,40.10
2022-12-25T23:44:09.134Z,42.50
2022-12-25T23:46:37.613Z,39.70
2022-12-25T23:49:06.544Z,41.90
2022-12-25T23:51:39.082Z,40.20
2022-12-25T23:54:07.385Z,43.40
2022-12-25T23:56:35.813Z,42.20
2022-12-25T23:59:05.632Z,42.40
